createdAt,value
2018-04-22T00:01:41.264Z,4.30
2018-04-22T00:04:08.234Z,4.00
2018-04-22T00:06:34.431Z,5.07
2018-04-22T00:09:00.609Z,4.30
2018-04-22T00:11:26.845Z,4.10
2018-04-22T00:13:53.063Z,4.63
2018-04-22T00:16:19.997Z,3.80
2018-04-22T00:18:46.947Z,4.10
2018-04-22T00:21:13.167Z,4.33
2018-04-22T00:23:39.385Z,4.30
2018-04-22T00:26:05.627Z,4.07
2018-04-22T00:28:31.811Z,4.07
2018-04-22T00:30:58.778Z,4.60
2018-04-22T00:33:24.987Z,4.83
2018-04-22T00:35:51.193Z,5.23
2018-04-22T00:38:17.442Z,3.90
2018-04-22T00:40:43.673Z,4.67
2018-04-22T00:43:09.907Z,4.47
2018-04-22T00:45:36.129Z,4.50
2018-04-22T00:48:02.354Z,4.23
2018-04-22T00:50:28.546Z,4.17
2018-04-22T00:52:54.736Z,4.33
2018-04-22T00:55:20.962Z,4.23
2018-04-22T00:57:47.292Z,5.47
2018-04-22T01:00:13.523Z,4.93
2018-04-22T01:02:40.467Z,4.80
2018-04-22T01:05:07.426Z,4.20
2018-04-22T01:07:33.664Z,4.50
2018-04-22T01:09:59.878Z,4.23
2018-04-22T01:12:26.102Z,4.30
2018-04-22T01:14:52.271Z,4.83
2018-04-22T01:17:18.528Z,4.10
2018-04-22T01:19:45.475Z,4.60
2018-04-22T01:22:11.670Z,4.37
2018-04-22T01:24:37.894Z,4.63
2018-04-22T01:27:04.131Z,4.40
2018-04-22T01:29:30.317Z,4.80
2018-04-22T01:31:56.540Z,4.43
2018-04-22T01:34:22.747Z,4.63
2018-04-22T01:36:48.975Z,4.53
2018-04-22T01:39:15.209Z,4.30
2018-04-22T01:41:41.603Z,4.60
2018-04-22T01:44:08.563Z,4.70
2018-04-22T01:46:34.773Z,4.47
2018-04-22T01:49:00.970Z,4.10
2018-04-22T01:51:27.976Z,4.30
2018-04-22T01:53:54.217Z,4.07
2018-04-22T01:56:20.413Z,4.00
2018-04-22T01:58:46.649Z,3.77
2018-04-22T02:01:12.836Z,4.37
2018-04-22T02:03:39.032Z,4.70
2018-04-22T02:06:05.282Z,4.33
2018-04-22T02:08:31.496Z,4.40
2018-04-22T02:10:57.729Z,4.60
2018-04-22T02:13:24.659Z,4.00
2018-04-22T02:15:50.933Z,4.70
2018-04-22T02:18:17.175Z,3.63
2018-04-22T02:20:43.365Z,4.30
2018-04-22T02:23:09.590Z,4.80
2018-04-22T02:25:36.569Z,4.07
2018-04-22T02:28:02.823Z,4.47
2018-04-22T02:30:29.063Z,4.50
2018-04-22T02:32:55.304Z,4.33
2018-04-22T02:35:21.559Z,4.70
2018-04-22T02:37:48.511Z,4.20
2018-04-22T02:40:15.495Z,3.83
2018-04-22T02:42:42.439Z,4.27
2018-04-22T02:45:08.733Z,4.67
2018-04-22T02:47:35.059Z,4.17
2018-04-22T02:50:01.306Z,5.00
2018-04-22T02:52:29.023Z,4.50
2018-04-22T02:54:55.246Z,5.23
2018-04-22T02:57:21.482Z,5.20
2018-04-22T02:59:47.700Z,4.73
2018-04-22T03:02:13.917Z,4.07
2018-04-22T03:04:40.152Z,4.77
2018-04-22T03:07:06.366Z,4.83
2018-04-22T03:09:32.580Z,5.10
2018-04-22T03:11:59.541Z,4.70
2018-04-22T03:14:26.523Z,5.17
2018-04-22T03:16:52.746Z,4.50
2018-04-22T03:19:19.704Z,5.17
2018-04-22T03:21:46.368Z,4.53
2018-04-22T03:24:13.312Z,4.47
2018-04-22T03:26:39.498Z,5.30
2018-04-22T03:29:05.690Z,3.83
2018-04-22T03:31:32.352Z,5.13
2018-04-22T03:33:58.634Z,4.53
2018-04-22T03:36:25.592Z,4.30
2018-04-22T03:38:51.817Z,4.90
2018-04-22T03:41:18.034Z,4.10
2018-04-22T03:43:44.309Z,4.63
2018-04-22T03:46:10.552Z,4.80
2018-04-22T03:48:38.255Z,5.10
2018-04-22T03:51:04.453Z,4.73
2018-04-22T03:53:30.693Z,4.97
2018-04-22T03:55:57.633Z,4.57
2018-04-22T03:58:25.332Z,4.47
2018-04-22T04:00:51.551Z,4.37
2018-04-22T04:03:18.493Z,4.67
2018-04-22T04:05:45.433Z,4.63
2018-04-22T04:08:12.367Z,4.83
2018-04-22T04:10:38.587Z,4.87
2018-04-22T04:13:04.807Z,4.53
2018-04-22T04:15:31.029Z,4.87
2018-04-22T04:17:57.260Z,5.27
2018-04-22T04:20:23.479Z,4.40
2018-04-22T04:22:49.683Z,4.47
2018-04-22T04:25:15.910Z,4.67
2018-04-22T04:27:42.121Z,4.90
2018-04-22T04:30:08.322Z,4.80
2018-04-22T04:32:35.267Z,4.77
2018-04-22T04:35:02.222Z,5.00
2018-04-22T04:37:29.147Z,4.63
2018-04-22T04:39:56.128Z,4.80
2018-04-22T04:42:23.105Z,5.63
2018-04-22T04:44:49.319Z,4.60
2018-04-22T04:47:15.527Z,4.83
2018-04-22T04:49:42.494Z,4.90
2018-04-22T04:52:08.755Z,4.87
2018-04-22T04:54:35.003Z,5.07
2018-04-22T04:57:01.213Z,5.53
2018-04-22T04:59:28.171Z,4.83
2018-04-22T05:01:54.823Z,4.87
2018-04-22T05:04:21.751Z,5.03
2018-04-22T05:06:47.967Z,5.40
2018-04-22T05:09:14.170Z,4.70
2018-04-22T05:11:41.748Z,4.83
2018-04-22T05:14:08.718Z,4.93
2018-04-22T05:16:34.945Z,4.73
2018-04-22T05:19:01.148Z,5.40
2018-04-22T05:21:27.356Z,4.50
2018-04-22T05:23:53.554Z,4.63
2018-04-22T05:26:19.786Z,4.60
2018-04-22T05:28:45.974Z,4.93
2018-04-22T05:31:12.266Z,5.20
2018-04-22T05:33:38.429Z,4.90
2018-04-22T05:36:05.360Z,4.77
2018-04-22T05:38:32.293Z,5.40
2018-04-22T05:40:58.542Z,4.57
2018-04-22T05:43:25.490Z,4.80
2018-04-22T05:45:51.940Z,4.43
2018-04-22T05:48:18.150Z,5.37
2018-04-22T05:50:44.388Z,5.10
2018-04-22T05:53:11.402Z,4.87
2018-04-22T05:55:37.618Z,5.13
2018-04-22T05:58:03.869Z,6.77
2018-04-22T06:00:30.096Z,7.77
2018-04-22T06:02:56.360Z,6.70
2018-04-22T06:05:22.557Z,5.83
2018-04-22T06:07:48.780Z,7.37
2018-04-22T06:10:14.992Z,6.70
2018-04-22T06:12:41.203Z,7.07
2018-04-22T06:15:08.170Z,5.40
2018-04-22T06:17:34.349Z,6.50
2018-04-22T06:20:00.586Z,5.97
2018-04-22T06:22:27.554Z,6.87
2018-04-22T06:24:53.794Z,6.60
2018-04-22T06:27:20.019Z,5.90
2018-04-22T06:29:46.245Z,7.87
2018-04-22T06:32:13.256Z,5.87
2018-04-22T06:34:39.486Z,5.50
2018-04-22T06:37:05.672Z,6.30
2018-04-22T06:39:31.894Z,6.93
2018-04-22T06:41:58.138Z,7.60
2018-04-22T06:44:24.378Z,6.10
2018-04-22T06:46:51.344Z,6.70
2018-04-22T06:49:17.581Z,6.33
2018-04-22T06:51:43.851Z,5.93
2018-04-22T06:54:10.072Z,6.40
2018-04-22T06:56:36.302Z,5.70
2018-04-22T06:59:02.534Z,6.10
2018-04-22T07:01:28.804Z,5.30
2018-04-22T07:03:55.039Z,5.50
2018-04-22T07:06:21.231Z,6.10
2018-04-22T07:08:48.166Z,5.20
2018-04-22T07:11:15.118Z,6.77
2018-04-22T07:13:41.402Z,5.67
2018-04-22T07:16:07.631Z,5.73
2018-04-22T07:18:33.842Z,5.43
2018-04-22T07:21:00.808Z,5.07
2018-04-22T07:23:27.776Z,6.77
2018-04-22T07:25:54.020Z,4.73
2018-04-22T07:28:20.240Z,5.17
2018-04-22T07:30:46.463Z,5.40
2018-04-22T07:33:12.705Z,5.40
2018-04-22T07:35:38.994Z,5.07
2018-04-22T07:38:05.223Z,6.13
2018-04-22T07:40:31.451Z,5.23
2018-04-22T07:42:57.710Z,4.70
2018-04-22T07:45:24.677Z,5.37
2018-04-22T07:47:50.866Z,5.17
2018-04-22T07:50:17.827Z,5.40
2018-04-22T07:52:44.028Z,5.67
2018-04-22T07:55:10.974Z,5.07
2018-04-22T07:57:37.916Z,5.93
2018-04-22T08:00:04.861Z,5.97
2018-04-22T08:02:31.064Z,5.10
2018-04-22T08:04:58.467Z,4.93
2018-04-22T08:07:24.709Z,5.17
2018-04-22T08:09:50.943Z,4.70
2018-04-22T08:12:17.179Z,5.77
2018-04-22T08:14:43.444Z,5.07
2018-04-22T08:17:09.677Z,5.50
2018-04-22T08:19:35.881Z,5.27
2018-04-22T08:22:02.877Z,5.30
2018-04-22T08:24:29.136Z,5.33
2018-04-22T08:26:55.326Z,5.77
2018-04-22T08:29:22.323Z,5.30
2018-04-22T08:31:48.639Z,5.63
2018-04-22T08:34:14.867Z,6.40
2018-04-22T08:36:41.195Z,6.03
2018-04-22T08:39:07.524Z,5.50
2018-04-22T08:41:35.238Z,5.63
2018-04-22T08:44:01.477Z,5.37
2018-04-22T08:46:27.982Z,5.10
2018-04-22T08:48:54.284Z,6.10
2018-04-22T08:51:21.256Z,6.53
2018-04-22T08:53:47.465Z,6.40
2018-04-22T08:56:13.675Z,6.53
2018-04-22T08:58:39.865Z,6.87
2018-04-22T09:01:06.815Z,6.23
2018-04-22T09:03:33.057Z,5.67
2018-04-22T09:05:59.324Z,7.03
2018-04-22T09:08:25.603Z,6.77
2018-04-22T09:10:52.607Z,7.23
2018-04-22T09:13:18.830Z,6.30
2018-04-22T09:15:45.025Z,6.20
2018-04-22T09:18:11.284Z,5.93
2018-04-22T09:20:38.237Z,4.93
2018-04-22T09:23:04.461Z,7.43
2018-04-22T09:25:31.405Z,5.37
2018-04-22T09:27:57.691Z,5.50
2018-04-22T09:30:23.966Z,5.73
2018-04-22T09:32:50.138Z,6.57
2018-04-22T09:35:16.355Z,7.80
2018-04-22T09:37:42.562Z,9.63
2018-04-22T09:40:08.782Z,9.77
2018-04-22T09:42:35.008Z,10.83
2018-04-22T09:45:01.238Z,10.17
2018-04-22T09:47:27.480Z,9.57
2018-04-22T09:49:53.722Z,10.13
2018-04-22T09:52:20.634Z,9.60
2018-04-22T09:54:47.635Z,8.87
2018-04-22T09:57:13.813Z,9.10
2018-04-22T09:59:40.040Z,8.70
2018-04-22T10:05:11.632Z,9.57
2018-04-22T10:07:37.856Z,8.27
2018-04-22T10:10:04.062Z,9.27
2018-04-22T10:12:30.274Z,7.50
2018-04-22T10:14:56.482Z,8.03
2018-04-22T10:17:22.686Z,7.80
2018-04-22T10:19:49.665Z,7.77
2018-04-22T10:22:16.623Z,8.07
2018-04-22T10:24:42.878Z,8.00
2018-04-22T10:27:09.843Z,7.57
2018-04-22T10:29:36.061Z,8.70
2018-04-22T10:32:02.325Z,8.13
2018-04-22T10:34:28.587Z,8.33
2018-04-22T10:36:55.602Z,8.33
2018-04-22T10:39:21.817Z,8.37
2018-04-22T10:41:48.060Z,7.80
2018-04-22T10:44:14.291Z,7.27
2018-04-22T10:46:40.589Z,6.20
2018-04-22T10:49:06.772Z,6.77
2018-04-22T10:51:33.023Z,7.30
2018-04-22T10:54:00.009Z,6.37
2018-04-22T10:56:26.965Z,6.10
2018-04-22T10:58:54.007Z,6.97
2018-04-22T11:01:20.257Z,6.77
2018-04-22T11:03:46.490Z,6.90
2018-04-22T11:06:12.719Z,7.93
2018-04-22T11:08:39.695Z,7.13
2018-04-22T11:11:06.680Z,5.80
2018-04-22T11:13:32.905Z,7.40
2018-04-22T11:15:59.095Z,6.93
2018-04-22T11:18:25.351Z,6.33
2018-04-22T11:20:51.575Z,5.80
2018-04-22T11:23:17.803Z,5.90
2018-04-22T11:25:44.760Z,6.17
2018-04-22T11:28:10.973Z,6.30
2018-04-22T11:30:37.214Z,6.50
2018-04-22T11:33:03.387Z,6.00
2018-04-22T11:35:30.346Z,6.50
2018-04-22T11:37:56.547Z,6.33
2018-04-22T11:40:22.740Z,5.70
2018-04-22T11:42:49.001Z,6.30
2018-04-22T11:45:15.197Z,5.27
2018-04-22T11:47:42.150Z,6.00
2018-04-22T11:50:09.121Z,6.33
2018-04-22T11:52:35.354Z,5.60
2018-04-22T11:55:01.564Z,5.67
2018-04-22T11:57:27.784Z,5.83
2018-04-22T11:59:54.125Z,5.77
2018-04-22T12:02:22.226Z,5.53
2018-04-22T12:04:49.942Z,5.90
2018-04-22T12:07:16.166Z,6.53
2018-04-22T12:09:42.406Z,6.17
2018-04-22T12:12:08.629Z,6.00
2018-04-22T12:14:34.929Z,5.73
2018-04-22T12:17:01.151Z,6.20
2018-04-22T12:19:27.380Z,6.37
2018-04-22T12:21:53.625Z,5.90
2018-04-22T12:24:19.795Z,5.87
2018-04-22T12:26:46.012Z,5.43
2018-04-22T12:29:12.261Z,6.03
2018-04-22T12:31:38.463Z,5.40
2018-04-22T12:34:05.493Z,6.17
2018-04-22T12:36:31.717Z,6.13
2018-04-22T12:38:57.930Z,5.67
2018-04-22T12:41:24.176Z,5.77
2018-04-22T12:43:50.370Z,5.60
2018-04-22T12:46:16.578Z,5.33
2018-04-22T12:48:54.665Z,5.00
2018-04-22T12:51:20.944Z,4.77
2018-04-22T12:53:47.182Z,5.23
2018-04-22T12:56:13.391Z,5.03
2018-04-22T12:58:39.602Z,6.23
2018-04-22T13:01:05.820Z,5.60
2018-04-22T13:03:32.014Z,4.87
2018-04-22T13:05:59.037Z,6.47
2018-04-22T13:08:25.221Z,5.30
2018-04-22T13:10:51.420Z,5.93
2018-04-22T13:13:17.669Z,4.60
2018-04-22T13:15:43.894Z,6.37
2018-04-22T13:18:10.080Z,4.27
2018-04-22T13:20:36.315Z,5.37
2018-04-22T13:23:02.550Z,5.30
2018-04-22T13:25:28.776Z,5.30
2018-04-22T13:27:54.984Z,5.33
2018-04-22T13:30:21.927Z,5.07
2018-04-22T13:32:48.184Z,5.03
2018-04-22T13:35:15.192Z,5.60
2018-04-22T13:37:41.418Z,5.07
2018-04-22T13:40:07.615Z,4.87
2018-04-22T13:42:33.842Z,5.73
2018-04-22T13:45:00.824Z,5.73
2018-04-22T13:47:27.804Z,5.67
2018-04-22T13:49:54.008Z,6.50
2018-04-22T13:52:21.027Z,5.77
2018-04-22T13:54:47.242Z,6.17
2018-04-22T13:57:13.492Z,6.83
2018-04-22T13:59:39.708Z,5.27
2018-04-22T14:02:05.946Z,6.90
2018-04-22T14:04:32.155Z,6.90
2018-04-22T14:06:59.109Z,7.27
2018-04-22T14:09:25.361Z,6.00
2018-04-22T14:11:51.607Z,6.80
2018-04-22T14:14:17.831Z,7.80
2018-04-22T14:16:44.029Z,7.37
2018-04-22T14:19:10.270Z,8.77
2018-04-22T14:21:37.399Z,8.67
2018-04-22T14:24:03.590Z,9.93
2018-04-22T14:26:29.812Z,9.03
2018-04-22T14:28:56.018Z,8.43
2018-04-22T14:31:22.250Z,8.30
2018-04-22T14:33:48.449Z,10.33
2018-04-22T14:36:15.400Z,9.00
2018-04-22T14:38:42.356Z,10.00
2018-04-22T14:41:08.668Z,8.87
2018-04-22T14:43:34.870Z,10.13
2018-04-22T14:46:01.062Z,9.60
2018-04-22T14:48:27.313Z,9.13
2018-04-22T14:50:53.553Z,9.53
2018-04-22T14:53:19.767Z,11.07
2018-04-22T14:55:45.983Z,11.60
2018-04-22T14:58:12.983Z,10.80
2018-04-22T15:00:39.983Z,10.90
2018-04-22T15:03:06.976Z,10.83
2018-04-22T15:05:33.208Z,10.00
2018-04-22T15:07:59.438Z,13.60
2018-04-22T15:10:25.657Z,10.80
2018-04-22T15:12:51.865Z,9.90
2018-04-22T15:15:18.831Z,9.67
2018-04-22T15:17:45.045Z,9.43
2018-04-22T15:20:12.013Z,9.83
2018-04-22T15:22:38.204Z,10.53
2018-04-22T15:25:05.216Z,9.80
2018-04-22T15:27:31.407Z,8.77
2018-04-22T15:29:57.640Z,9.40
2018-04-22T15:32:23.834Z,8.27
2018-04-22T15:34:50.071Z,8.63
2018-04-22T15:37:16.298Z,7.97
2018-04-22T15:39:42.538Z,9.27
2018-04-22T15:42:08.833Z,10.43
2018-04-22T15:44:35.769Z,8.03
2018-04-22T15:47:02.727Z,9.43
2018-04-22T15:49:28.965Z,8.73
2018-04-22T15:51:55.820Z,8.60
2018-04-22T15:54:22.041Z,8.07
2018-04-22T15:56:48.235Z,10.07
2018-04-22T15:59:15.219Z,7.73
2018-04-22T16:01:42.193Z,9.00
2018-04-22T16:04:08.448Z,7.93
2018-04-22T16:06:34.671Z,9.50
2018-04-22T16:09:00.925Z,9.73
2018-04-22T16:11:27.115Z,7.07
2018-04-22T16:13:53.349Z,6.80
2018-04-22T16:16:19.603Z,6.97
2018-04-22T16:18:45.833Z,7.83
2018-04-22T16:21:12.057Z,8.27
2018-04-22T16:23:38.265Z,7.53
2018-04-22T16:26:04.494Z,7.77
2018-04-22T16:28:30.692Z,7.93
2018-04-22T16:30:56.906Z,7.87
2018-04-22T16:33:23.143Z,8.80
2018-04-22T16:35:49.418Z,7.27
2018-04-22T16:38:15.567Z,7.23
2018-04-22T16:40:42.512Z,8.67
2018-04-22T16:43:08.706Z,7.60
2018-04-22T16:45:34.897Z,8.07
2018-04-22T16:48:01.168Z,6.23
2018-04-22T16:50:27.392Z,8.00
2018-04-22T16:52:53.614Z,7.10
2018-04-22T16:55:19.821Z,6.40
2018-04-22T16:57:46.008Z,7.00
2018-04-22T17:00:12.946Z,7.17
2018-04-22T17:02:39.238Z,7.07
2018-04-22T17:05:06.184Z,6.63
2018-04-22T17:07:33.171Z,6.57
2018-04-22T17:09:59.420Z,7.87
2018-04-22T17:12:26.392Z,6.10
2018-04-22T17:14:52.671Z,6.90
2018-04-22T17:17:18.875Z,6.33
2018-04-22T17:19:45.072Z,6.93
2018-04-22T17:22:11.288Z,6.90
2018-04-22T17:24:37.508Z,6.57
2018-04-22T17:27:03.760Z,6.90
2018-04-22T17:29:29.979Z,6.63
2018-04-22T17:31:56.240Z,7.33
2018-04-22T17:34:22.457Z,6.63
2018-04-22T17:36:48.711Z,7.70
2018-04-22T17:39:14.970Z,8.03
2018-04-22T17:41:41.658Z,6.60
2018-04-22T17:44:07.883Z,6.13
2018-04-22T17:46:34.875Z,6.47
2018-04-22T17:49:01.084Z,6.30
2018-04-22T17:51:27.984Z,5.97
2018-04-22T17:53:54.238Z,6.43
2018-04-22T17:56:21.223Z,6.20
2018-04-22T17:58:47.433Z,6.20
2018-04-22T18:01:13.628Z,5.80
2018-04-22T18:03:39.859Z,6.17
2018-04-22T18:06:06.091Z,6.33
2018-04-22T18:08:33.065Z,6.30
2018-04-22T18:10:59.299Z,5.73
2018-04-22T18:13:25.528Z,6.77
2018-04-22T18:15:52.540Z,6.37
2018-04-22T18:18:18.729Z,5.53
2018-04-22T18:20:44.966Z,5.50
2018-04-22T18:23:11.932Z,6.77
2018-04-22T18:25:38.160Z,6.53
2018-04-22T18:28:04.400Z,7.00
2018-04-22T18:30:30.598Z,5.57
2018-04-22T18:32:56.834Z,5.93
2018-04-22T18:35:23.091Z,5.90
2018-04-22T18:37:50.072Z,5.70
2018-04-22T18:40:16.327Z,5.83
2018-04-22T18:42:42.642Z,5.33
2018-04-22T18:45:08.891Z,5.20
2018-04-22T18:47:35.169Z,5.40
2018-04-22T18:50:02.149Z,5.70
2018-04-22T18:52:28.365Z,5.27
2018-04-22T18:54:54.573Z,4.80
2018-04-22T18:57:21.521Z,5.03
2018-04-22T18:59:47.759Z,4.37
2018-04-22T19:02:14.043Z,4.63
2018-04-22T19:04:40.241Z,4.70
2018-04-22T19:07:07.249Z,4.33
2018-04-22T19:09:33.532Z,4.73
2018-04-22T19:12:00.667Z,4.53
2018-04-22T19:14:26.879Z,4.60
2018-04-22T19:16:53.823Z,4.53
2018-04-22T19:19:20.807Z,4.30
2018-04-22T19:21:47.099Z,4.43
2018-04-22T19:24:13.367Z,4.37
2018-04-22T19:26:39.637Z,4.87
2018-04-22T19:29:05.889Z,4.37
2018-04-22T19:31:32.093Z,4.30
2018-04-22T19:33:58.320Z,3.90
2018-04-22T19:36:24.552Z,4.17
2018-04-22T19:38:51.560Z,4.50
2018-04-22T19:41:17.825Z,4.70
2018-04-22T19:43:44.792Z,3.77
2018-04-22T19:46:11.055Z,4.60
2018-04-22T19:48:38.097Z,4.37
2018-04-22T19:51:04.365Z,5.10
2018-04-22T19:53:30.562Z,4.67
2018-04-22T19:55:56.761Z,4.50
2018-04-22T19:58:22.965Z,4.80
2018-04-22T20:00:49.906Z,4.20
2018-04-22T20:03:16.883Z,4.07
2018-04-22T20:05:43.128Z,4.37
2018-04-22T20:08:09.348Z,4.70
2018-04-22T20:10:35.607Z,4.13
2018-04-22T20:13:01.826Z,4.27
2018-04-22T20:15:28.079Z,3.77
2018-04-22T20:17:55.011Z,3.57
2018-04-22T20:20:21.273Z,3.73
2018-04-22T20:22:47.473Z,4.17
2018-04-22T20:25:13.712Z,4.17
2018-04-22T20:27:40.683Z,4.17
2018-04-22T20:30:06.933Z,4.97
2018-04-22T20:32:33.126Z,4.20
2018-04-22T20:34:59.394Z,5.23
2018-04-22T20:37:26.354Z,6.00
2018-04-22T20:39:53.340Z,7.13
2018-04-22T20:42:20.310Z,6.07
2018-04-22T20:44:46.533Z,5.43
2018-04-22T20:47:13.285Z,5.13
2018-04-22T20:49:39.519Z,5.07
2018-04-22T20:52:05.760Z,5.27
2018-04-22T20:54:31.990Z,5.20
2018-04-22T20:56:58.254Z,4.93
2018-04-22T20:59:25.229Z,4.30
2018-04-22T21:01:51.633Z,5.67
2018-04-22T21:04:17.851Z,4.00
2018-04-22T21:06:44.055Z,4.17
2018-04-22T21:09:10.271Z,4.43
2018-04-22T21:11:37.239Z,4.50
2018-04-22T21:14:03.479Z,4.00
2018-04-22T21:16:29.675Z,4.27
2018-04-22T21:18:56.633Z,3.43
2018-04-22T21:21:23.580Z,3.93
2018-04-22T21:23:50.574Z,4.77
2018-04-22T21:26:17.528Z,4.63
2018-04-22T21:28:43.772Z,4.43
2018-04-22T21:31:09.981Z,4.57
2018-04-22T21:33:36.236Z,4.37
2018-04-22T21:36:02.471Z,4.83
2018-04-22T21:38:28.719Z,4.37
2018-04-22T21:40:54.993Z,3.93
2018-04-22T21:43:21.207Z,4.50
2018-04-22T21:45:47.428Z,4.57
2018-04-22T21:48:13.620Z,5.13
2018-04-22T21:50:40.631Z,5.03
2018-04-22T21:53:06.876Z,4.70
2018-04-22T21:55:34.549Z,5.43
2018-04-22T21:58:01.523Z,6.30
2018-04-22T22:00:27.752Z,6.13
2018-04-22T22:02:53.947Z,6.77
2018-04-22T22:05:20.159Z,5.97
2018-04-22T22:07:46.373Z,6.93
2018-04-22T22:10:12.636Z,7.53
2018-04-22T22:12:39.612Z,7.47
2018-04-22T22:15:06.557Z,9.43
2018-04-22T22:17:33.487Z,8.43
2018-04-22T22:20:00.473Z,10.80
2018-04-22T22:22:26.701Z,11.07
2018-04-22T22:24:52.904Z,9.03
2018-04-22T22:27:19.853Z,10.83
2018-04-22T22:29:46.088Z,11.53
2018-04-22T22:32:12.306Z,10.97
2018-04-22T22:34:38.509Z,14.33
2018-04-22T22:37:04.721Z,16.00
2018-04-22T22:39:31.689Z,13.97
2018-04-22T22:41:58.375Z,18.20
2018-04-22T22:44:25.318Z,15.63
2018-04-22T22:46:52.311Z,16.83
2018-04-22T22:49:18.576Z,18.07
2018-04-22T22:51:44.837Z,21.20
2018-04-22T22:54:11.770Z,17.27
2018-04-22T22:56:38.727Z,20.80
2018-04-22T22:59:05.753Z,20.03
2018-04-22T23:01:33.519Z,19.53
2018-04-22T23:03:59.729Z,20.80
2018-04-22T23:06:25.926Z,20.63
2018-04-22T23:08:52.157Z,19.70
2018-04-22T23:11:18.388Z,22.07
2018-04-22T23:13:44.580Z,20.77
2018-04-22T23:16:10.790Z,20.80
2018-04-22T23:18:37.748Z,21.63
2018-04-22T23:21:03.991Z,19.50
2018-04-22T23:23:30.199Z,21.70
2018-04-22T23:25:56.419Z,20.00
2018-04-22T23:28:22.635Z,19.57
2018-04-22T23:30:49.581Z,19.17
2018-04-22T23:33:15.823Z,20.33
2018-04-22T23:35:42.066Z,18.97
2018-04-22T23:38:08.310Z,17.63
2018-04-22T23:40:34.525Z,17.90
2018-04-22T23:43:01.477Z,18.43
2018-04-22T23:45:27.709Z,16.63
2018-04-22T23:47:53.929Z,12.47
2018-04-22T23:50:20.861Z,10.90
2018-04-22T23:52:47.089Z,9.37
2018-04-22T23:55:13.273Z,7.60
2018-04-22T23:57:40.223Z,6.57
